DAL2282 KSLC-KJAC
Flight info
| Callsign | DAL2282 |
|---|---|
| Flight time | 0h 33m |
| Altitude | 33000 |
| Route | RUGGD3 HOLTR ELLKK MOSSS |
| Aircraft | A319/M-SDE3FGHIRWY/LB1 |
Departure
| Time | 2026-05-05 18:47 |
|---|---|
| Airport | Salt Lake City International Airport (KSLC) |
Arrival
| Time | 2026-05-05 19:20 |
|---|---|
| Airport | Jackson Hole Airport (KJAC) |
| Time | Latitude | Longitude | Altitude | Speed | Heading |
|---|---|---|---|---|---|
| 2026-05-05 18:22 | 40.78471 | -111.99196 | 4230 ft | 0 kts | 15° |
| 2026-05-05 18:35 | 40.78465 | -111.99198 | 4231 ft | 2 kts | 14° |
| 2026-05-05 18:36 | 40.78446 | -111.99203 | 4231 ft | 3 kts | 3° |
| 2026-05-05 18:36 | 40.78427 | -111.99201 | 4231 ft | 3 kts | 338° |
| 2026-05-05 18:36 | 40.78414 | -111.99191 | 4231 ft | 3 kts | 284° |
| 2026-05-05 18:36 | 40.78412 | -111.99182 | 4231 ft | 0 kts | 266° |
| 2026-05-05 18:39 | 40.78412 | -111.99183 | 4231 ft | 1 kts | 266° |
| 2026-05-05 18:39 | 40.78410 | -111.99213 | 4231 ft | 6 kts | 264° |
| 2026-05-05 18:39 | 40.78410 | -111.99302 | 4231 ft | 13 kts | 279° |
| 2026-05-05 18:39 | 40.78488 | -111.99349 | 4231 ft | 16 kts | 358° |
| 2026-05-05 18:40 | 40.78621 | -111.99364 | 4231 ft | 22 kts | 355° |
| 2026-05-05 18:40 | 40.78797 | -111.99384 | 4231 ft | 28 kts | 355° |
| 2026-05-05 18:40 | 40.78996 | -111.99407 | 4231 ft | 29 kts | 355° |
| 2026-05-05 18:40 | 40.79095 | -111.99384 | 4231 ft | 10 kts | 64° |
| 2026-05-05 18:41 | 40.79106 | -111.99298 | 4231 ft | 12 kts | 83° |
| 2026-05-05 18:41 | 40.79116 | -111.99145 | 4231 ft | 21 kts | 85° |
| 2026-05-05 18:41 | 40.79131 | -111.98920 | 4231 ft | 25 kts | 85° |
| 2026-05-05 18:41 | 40.79146 | -111.98693 | 4231 ft | 24 kts | 85° |
| 2026-05-05 18:42 | 40.79161 | -111.98472 | 4231 ft | 24 kts | 84° |
| 2026-05-05 18:42 | 40.79175 | -111.98256 | 4231 ft | 24 kts | 85° |
| 2026-05-05 18:42 | 40.79190 | -111.98036 | 4231 ft | 24 kts | 85° |
| 2026-05-05 18:42 | 40.79205 | -111.97816 | 4231 ft | 20 kts | 85° |
| 2026-05-05 18:43 | 40.79232 | -111.97741 | 4231 ft | 13 kts | 24° |
| 2026-05-05 18:43 | 40.79326 | -111.97748 | 4231 ft | 15 kts | 355° |
| 2026-05-05 18:43 | 40.79454 | -111.97763 | 4230 ft | 22 kts | 356° |
| 2026-05-05 18:43 | 40.79628 | -111.97782 | 4230 ft | 28 kts | 355° |
| 2026-05-05 18:44 | 40.79836 | -111.97807 | 4231 ft | 30 kts | 355° |
| 2026-05-05 18:44 | 40.80041 | -111.97830 | 4231 ft | 29 kts | 354° |
| 2026-05-05 18:44 | 40.80236 | -111.97850 | 4231 ft | 28 kts | 1° |
| 2026-05-05 18:44 | 40.80422 | -111.97823 | 4231 ft | 26 kts | 353° |
| 2026-05-05 18:45 | 40.80602 | -111.97844 | 4231 ft | 26 kts | 355° |
| 2026-05-05 18:45 | 40.80728 | -111.97853 | 4230 ft | 10 kts | 21° |
| 2026-05-05 18:45 | 40.80744 | -111.97770 | 4229 ft | 11 kts | 107° |
| 2026-05-05 18:45 | 40.80689 | -111.97697 | 4229 ft | 11 kts | 156° |
| 2026-05-05 18:46 | 40.80594 | -111.97682 | 4231 ft | 27 kts | 175° |
| 2026-05-05 18:46 | 40.80161 | -111.97630 | 4234 ft | 94 kts | 175° |
| 2026-05-05 18:46 | 40.79321 | -111.97532 | 4230 ft | 145 kts | 175° |
| 2026-05-05 18:46 | 40.78256 | -111.97409 | 4654 ft | 154 kts | 175° |
| 2026-05-05 18:47 | 40.77172 | -111.97275 | 5184 ft | 157 kts | 175° |
| 2026-05-05 18:47 | 40.76073 | -111.97135 | 5726 ft | 160 kts | 177° |
| 2026-05-05 18:47 | 40.74938 | -111.96992 | 6113 ft | 172 kts | 175° |
| 2026-05-05 18:47 | 40.73688 | -111.97197 | 6304 ft | 196 kts | 204° |
| 2026-05-05 18:48 | 40.72646 | -111.98507 | 6476 ft | 226 kts | 239° |
| 2026-05-05 18:48 | 40.72034 | -112.00543 | 6808 ft | 252 kts | 250° |
| 2026-05-05 18:48 | 40.71535 | -112.02864 | 7264 ft | 272 kts | 261° |
| 2026-05-05 18:48 | 40.71741 | -112.05357 | 8060 ft | 279 kts | 290° |
| 2026-05-05 18:49 | 40.72810 | -112.07489 | 8924 ft | 284 kts | 316° |
| 2026-05-05 18:49 | 40.74482 | -112.08838 | 9812 ft | 289 kts | 336° |
| 2026-05-05 18:49 | 40.76404 | -112.09759 | 10346 ft | 304 kts | 340° |
| 2026-05-05 18:49 | 40.78503 | -112.10651 | 10636 ft | 328 kts | 345° |
| 2026-05-05 18:50 | 40.80849 | -112.10808 | 10950 ft | 349 kts | 8° |
| 2026-05-05 18:50 | 40.83223 | -112.10005 | 11608 ft | 355 kts | 14° |
| 2026-05-05 18:50 | 40.85601 | -112.09097 | 12437 ft | 356 kts | 15° |
| 2026-05-05 18:50 | 40.87994 | -112.08169 | 13213 ft | 359 kts | 15° |
| 2026-05-05 18:51 | 40.90397 | -112.07234 | 13943 ft | 361 kts | 15° |
| 2026-05-05 18:51 | 40.92813 | -112.06294 | 14592 ft | 364 kts | 15° |
| 2026-05-05 18:51 | 40.95253 | -112.05348 | 15222 ft | 367 kts | 15° |
| 2026-05-05 18:51 | 40.97715 | -112.04396 | 15859 ft | 370 kts | 15° |
| 2026-05-05 18:52 | 41.00195 | -112.03401 | 16489 ft | 375 kts | 19° |
| 2026-05-05 18:52 | 41.02551 | -112.01881 | 17124 ft | 380 kts | 31° |
| 2026-05-05 18:52 | 41.04644 | -111.99702 | 17765 ft | 386 kts | 43° |
| 2026-05-05 18:52 | 41.06367 | -111.96939 | 18351 ft | 393 kts | 54° |
| 2026-05-05 18:53 | 41.07651 | -111.93705 | 18883 ft | 398 kts | 63° |
| 2026-05-05 18:53 | 41.08818 | -111.90360 | 19429 ft | 401 kts | 63° |
| 2026-05-05 18:53 | 41.09992 | -111.86982 | 19966 ft | 405 kts | 63° |
| 2026-05-05 18:53 | 41.11269 | -111.83646 | 20432 ft | 407 kts | 56° |
| 2026-05-05 18:54 | 41.12991 | -111.80676 | 20912 ft | 407 kts | 44° |
| 2026-05-05 18:54 | 41.15128 | -111.78221 | 21378 ft | 408 kts | 32° |
| 2026-05-05 18:54 | 41.17567 | -111.76386 | 21808 ft | 409 kts | 21° |
| 2026-05-05 18:54 | 41.20270 | -111.75204 | 22257 ft | 410 kts | 11° |
| 2026-05-05 18:55 | 41.23079 | -111.74517 | 22724 ft | 412 kts | 8° |
| 2026-05-05 18:55 | 41.25909 | -111.73848 | 22928 ft | 414 kts | 8° |
| 2026-05-05 18:55 | 41.28742 | -111.73177 | 22955 ft | 413 kts | 8° |
| 2026-05-05 18:55 | 41.31576 | -111.72505 | 22947 ft | 413 kts | 8° |
| 2026-05-05 18:56 | 41.34406 | -111.71833 | 22946 ft | 413 kts | 8° |
| 2026-05-05 18:56 | 41.37232 | -111.71163 | 22937 ft | 412 kts | 8° |
| 2026-05-05 18:56 | 41.40032 | -111.70341 | 22932 ft | 413 kts | 14° |
| 2026-05-05 18:56 | 41.42795 | -111.69260 | 22921 ft | 413 kts | 14° |
| 2026-05-05 18:57 | 41.45552 | -111.68179 | 22914 ft | 413 kts | 14° |
| 2026-05-05 18:57 | 41.48323 | -111.67092 | 23116 ft | 416 kts | 14° |
| 2026-05-05 18:57 | 41.51106 | -111.65999 | 23604 ft | 418 kts | 14° |
| 2026-05-05 18:57 | 41.53902 | -111.64901 | 24048 ft | 419 kts | 14° |
| 2026-05-05 18:58 | 41.56697 | -111.63802 | 24551 ft | 418 kts | 14° |
| 2026-05-05 18:58 | 41.59485 | -111.62704 | 25062 ft | 417 kts | 14° |
| 2026-05-05 18:58 | 41.62263 | -111.61613 | 25569 ft | 416 kts | 14° |
| 2026-05-05 18:58 | 41.65033 | -111.60523 | 26050 ft | 414 kts | 15° |
| 2026-05-05 18:59 | 41.67795 | -111.59432 | 26549 ft | 413 kts | 15° |
| 2026-05-05 18:59 | 41.70547 | -111.58343 | 27010 ft | 412 kts | 15° |
| 2026-05-05 18:59 | 41.73292 | -111.57255 | 27478 ft | 410 kts | 15° |
| 2026-05-05 18:59 | 41.76028 | -111.56171 | 27866 ft | 410 kts | 15° |
| 2026-05-05 19:00 | 41.78756 | -111.55097 | 28342 ft | 408 kts | 14° |
| 2026-05-05 19:00 | 41.81521 | -111.54331 | 28791 ft | 405 kts | 8° |
| 2026-05-05 19:00 | 41.84293 | -111.53717 | 29284 ft | 402 kts | 8° |
| 2026-05-05 19:00 | 41.87035 | -111.53105 | 29931 ft | 396 kts | 9° |
| 2026-05-05 19:01 | 41.89703 | -111.52503 | 30464 ft | 392 kts | 9° |
| 2026-05-05 19:01 | 41.92379 | -111.51894 | 30896 ft | 389 kts | 9° |
| 2026-05-05 19:01 | 41.95045 | -111.51283 | 31296 ft | 388 kts | 9° |
| 2026-05-05 19:01 | 41.97695 | -111.50676 | 31719 ft | 386 kts | 9° |
| 2026-05-05 19:02 | 42.00337 | -111.50074 | 32136 ft | 383 kts | 9° |
| 2026-05-05 19:02 | 42.02963 | -111.49478 | 32559 ft | 381 kts | 9° |
| 2026-05-05 19:02 | 42.05580 | -111.48886 | 32802 ft | 381 kts | 9° |
| 2026-05-05 19:02 | 42.08188 | -111.48296 | 32839 ft | 380 kts | 9° |
| 2026-05-05 19:03 | 42.13407 | -111.47112 | 32837 ft | 379 kts | 9° |
| 2026-05-05 19:03 | 42.18615 | -111.45931 | 32840 ft | 379 kts | 9° |
| 2026-05-05 19:04 | 42.23822 | -111.44755 | 32829 ft | 379 kts | 9° |
| 2026-05-05 19:04 | 42.29026 | -111.43565 | 32823 ft | 379 kts | 10° |
| 2026-05-05 19:05 | 42.34054 | -111.41344 | 32816 ft | 381 kts | 18° |
| 2026-05-05 19:05 | 42.39027 | -111.38877 | 32829 ft | 381 kts | 17° |
| 2026-05-05 19:06 | 42.44001 | -111.36403 | 32813 ft | 381 kts | 17° |
| 2026-05-05 19:06 | 42.48978 | -111.33919 | 32812 ft | 381 kts | 17° |
| 2026-05-05 19:07 | 42.53961 | -111.31431 | 32541 ft | 380 kts | 17° |
| 2026-05-05 19:07 | 42.56471 | -111.30177 | 31319 ft | 389 kts | 17° |
| 2026-05-05 19:07 | 42.59006 | -111.28916 | 30177 ft | 396 kts | 17° |
| 2026-05-05 19:08 | 42.61621 | -111.27615 | 28925 ft | 402 kts | 17° |
| 2026-05-05 19:08 | 42.64279 | -111.26289 | 27483 ft | 411 kts | 17° |
| 2026-05-05 19:08 | 42.67003 | -111.24931 | 25882 ft | 424 kts | 17° |
| 2026-05-05 19:08 | 42.69802 | -111.23530 | 24861 ft | 428 kts | 17° |
| 2026-05-05 19:09 | 42.72550 | -111.22144 | 24408 ft | 416 kts | 17° |
| 2026-05-05 19:09 | 42.75250 | -111.20781 | 23698 ft | 413 kts | 17° |
| 2026-05-05 19:09 | 42.77942 | -111.19422 | 22909 ft | 411 kts | 17° |
| 2026-05-05 19:09 | 42.80611 | -111.18072 | 22223 ft | 407 kts | 17° |
| 2026-05-05 19:10 | 42.83251 | -111.16738 | 21560 ft | 403 kts | 17° |
| 2026-05-05 19:10 | 42.85831 | -111.15438 | 20917 ft | 399 kts | 17° |
| 2026-05-05 19:10 | 42.88428 | -111.14129 | 20286 ft | 396 kts | 17° |
| 2026-05-05 19:10 | 42.91007 | -111.12826 | 19571 ft | 395 kts | 17° |
| 2026-05-05 19:11 | 42.93579 | -111.11492 | 18931 ft | 394 kts | 18° |
| 2026-05-05 19:11 | 42.96115 | -111.10054 | 18291 ft | 394 kts | 19° |
| 2026-05-05 19:11 | 42.98630 | -111.08542 | 17608 ft | 394 kts | 20° |
| 2026-05-05 19:11 | 43.01123 | -111.07001 | 17000 ft | 392 kts | 20° |
| 2026-05-05 19:12 | 43.03599 | -111.05467 | 16443 ft | 389 kts | 20° |
| 2026-05-05 19:12 | 43.06059 | -111.03956 | 15869 ft | 386 kts | 20° |
| 2026-05-05 19:12 | 43.08502 | -111.02469 | 15318 ft | 383 kts | 20° |
| 2026-05-05 19:12 | 43.10935 | -111.01001 | 14774 ft | 380 kts | 20° |
| 2026-05-05 19:13 | 43.13348 | -110.99555 | 14221 ft | 377 kts | 20° |
| 2026-05-05 19:13 | 43.15739 | -110.98127 | 13843 ft | 370 kts | 20° |
| 2026-05-05 19:13 | 43.18020 | -110.96760 | 13723 ft | 356 kts | 20° |
| 2026-05-05 19:13 | 43.20247 | -110.95421 | 13600 ft | 342 kts | 20° |
| 2026-05-05 19:14 | 43.22386 | -110.94130 | 13247 ft | 331 kts | 21° |
| 2026-05-05 19:14 | 43.24426 | -110.92892 | 13114 ft | 310 kts | 21° |
| 2026-05-05 19:14 | 43.26348 | -110.91726 | 12889 ft | 296 kts | 21° |
| 2026-05-05 19:14 | 43.28215 | -110.90597 | 12469 ft | 290 kts | 21° |
| 2026-05-05 19:15 | 43.30057 | -110.89488 | 11957 ft | 289 kts | 21° |
| 2026-05-05 19:15 | 43.31891 | -110.88385 | 11506 ft | 285 kts | 21° |
| 2026-05-05 19:15 | 43.33708 | -110.87290 | 10919 ft | 286 kts | 21° |
| 2026-05-05 19:15 | 43.35528 | -110.86193 | 10505 ft | 284 kts | 20° |
| 2026-05-05 19:16 | 43.37343 | -110.85109 | 10345 ft | 283 kts | 20° |
| 2026-05-05 19:16 | 43.39182 | -110.84138 | 10215 ft | 282 kts | 18° |
| 2026-05-05 19:16 | 43.40979 | -110.83267 | 10090 ft | 272 kts | 16° |
| 2026-05-05 19:16 | 43.42738 | -110.82444 | 9970 ft | 262 kts | 15° |
| 2026-05-05 19:17 | 43.44439 | -110.81647 | 9840 ft | 248 kts | 17° |
| 2026-05-05 19:17 | 43.46033 | -110.80893 | 9453 ft | 242 kts | 15° |
| 2026-05-05 19:17 | 43.47609 | -110.80141 | 9081 ft | 237 kts | 15° |
| 2026-05-05 19:17 | 43.49125 | -110.79412 | 8748 ft | 223 kts | 15° |
| 2026-05-05 19:18 | 43.50542 | -110.78724 | 8459 ft | 207 kts | 18° |
| 2026-05-05 19:18 | 43.51865 | -110.78081 | 8155 ft | 196 kts | 17° |
| 2026-05-05 19:18 | 43.53093 | -110.77482 | 7867 ft | 178 kts | 17° |
| 2026-05-05 19:18 | 43.54189 | -110.76948 | 7648 ft | 156 kts | 17° |
| 2026-05-05 19:19 | 43.55174 | -110.76472 | 7424 ft | 143 kts | 17° |
| 2026-05-05 19:19 | 43.56105 | -110.76018 | 7178 ft | 142 kts | 17° |
| 2026-05-05 19:19 | 43.57028 | -110.75576 | 7007 ft | 139 kts | 16° |
| 2026-05-05 19:19 | 43.57942 | -110.75141 | 6836 ft | 140 kts | 15° |
| 2026-05-05 19:20 | 43.58888 | -110.74686 | 6645 ft | 147 kts | 17° |
| 2026-05-05 19:20 | 43.59845 | -110.74209 | 6450 ft | 142 kts | 19° |
| 2026-05-05 19:20 | 43.60664 | -110.73808 | 6423 ft | 107 kts | 20° |
| 2026-05-05 19:20 | 43.61123 | -110.73584 | 6421 ft | 47 kts | 19° |
| 2026-05-05 19:21 | 43.61382 | -110.73456 | 6419 ft | 34 kts | 20° |
| 2026-05-05 19:21 | 43.61505 | -110.73396 | 6420 ft | 10 kts | 24° |
| 2026-05-05 19:21 | 43.61524 | -110.73324 | 6423 ft | 9 kts | 105° |
| 2026-05-05 19:21 | 43.61497 | -110.73254 | 6427 ft | 8 kts | 140° |
| 2026-05-05 19:22 | 43.61449 | -110.73265 | 6426 ft | 8 kts | 202° |
| 2026-05-05 19:22 | 43.61349 | -110.73313 | 6424 ft | 21 kts | 199° |
| 2026-05-05 19:22 | 43.61209 | -110.73382 | 6423 ft | 21 kts | 200° |
| 2026-05-05 19:22 | 43.61069 | -110.73450 | 6422 ft | 21 kts | 200° |
| 2026-05-05 19:23 | 43.60942 | -110.73512 | 6424 ft | 18 kts | 199° |
| 2026-05-05 19:23 | 43.60825 | -110.73570 | 6424 ft | 18 kts | 200° |
| 2026-05-05 19:23 | 43.60707 | -110.73626 | 6424 ft | 19 kts | 199° |
| 2026-05-05 19:23 | 43.60578 | -110.73691 | 6420 ft | 21 kts | 200° |
| 2026-05-05 19:24 | 43.60497 | -110.73726 | 6422 ft | 7 kts | 180° |
| 2026-05-05 19:24 | 43.60476 | -110.73695 | 6422 ft | 4 kts | 107° |
| 2026-05-05 19:24 | 43.60469 | -110.73664 | 6424 ft | 3 kts | 109° |
| 2026-05-05 19:24 | 43.60466 | -110.73653 | 6424 ft | 0 kts | 109° |